sensor_id;sensor_type;location;lat;lon;timestamp;P1;durP1;ratioP1;P2;durP2;ratioP2
11675;SDS011;5894;42.768;23.404;2022-12-07T00:00:12;28.37;;;14.77;;
11675;SDS011;5894;42.768;23.404;2022-12-07T00:02:40;22.50;;;13.17;;
11675;SDS011;5894;42.768;23.404;2022-12-07T00:05:07;21.07;;;13.57;;
11675;SDS011;5894;42.768;23.404;2022-12-07T00:07:34;20.23;;;12.90;;
11675;SDS011;5894;42.768;23.404;2022-12-07T00:10:02;22.10;;;13.00;;
11675;SDS011;5894;42.768;23.404;2022-12-07T00:12:29;22.33;;;13.97;;
11675;SDS011;5894;42.768;23.404;2022-12-07T00:14:56;24.77;;;13.93;;
11675;SDS011;5894;42.768;23.404;2022-12-07T00:17:23;23.37;;;14.30;;
11675;SDS011;5894;42.768;23.404;2022-12-07T00:19:50;23.63;;;14.57;;
11675;SDS011;5894;42.768;23.404;2022-12-07T00:22:17;23.07;;;14.87;;
11675;SDS011;5894;42.768;23.404;2022-12-07T00:24:43;25.90;;;14.50;;
11675;SDS011;5894;42.768;23.404;2022-12-07T00:27:12;20.90;;;13.80;;
11675;SDS011;5894;42.768;23.404;2022-12-07T00:29:38;21.63;;;14.13;;
11675;SDS011;5894;42.768;23.404;2022-12-07T00:32:05;21.50;;;14.23;;
11675;SDS011;5894;42.768;23.404;2022-12-07T00:34:32;22.73;;;13.97;;
11675;SDS011;5894;42.768;23.404;2022-12-07T00:36:59;21.73;;;14.20;;
11675;SDS011;5894;42.768;23.404;2022-12-07T00:39:26;23.50;;;14.70;;
11675;SDS011;5894;42.768;23.404;2022-12-07T00:41:53;23.97;;;13.90;;
11675;SDS011;5894;42.768;23.404;2022-12-07T00:44:21;25.40;;;15.17;;
11675;SDS011;5894;42.768;23.404;2022-12-07T00:46:47;25.83;;;16.53;;
11675;SDS011;5894;42.768;23.404;2022-12-07T00:49:14;26.53;;;16.13;;
11675;SDS011;5894;42.768;23.404;2022-12-07T00:51:41;24.03;;;15.50;;
11675;SDS011;5894;42.768;23.404;2022-12-07T00:54:08;31.00;;;17.60;;
11675;SDS011;5894;42.768;23.404;2022-12-07T00:56:35;26.20;;;16.73;;
11675;SDS011;5894;42.768;23.404;2022-12-07T00:59:02;47.47;;;25.40;;
11675;SDS011;5894;42.768;23.404;2022-12-07T01:01:32;71.73;;;34.87;;
11675;SDS011;5894;42.768;23.404;2022-12-07T01:04:01;69.67;;;34.40;;
11675;SDS011;5894;42.768;23.404;2022-12-07T01:06:28;79.83;;;38.50;;
11675;SDS011;5894;42.768;23.404;2022-12-07T01:08:55;83.23;;;39.40;;
11675;SDS011;5894;42.768;23.404;2022-12-07T01:11:23;78.50;;;39.63;;
11675;SDS011;5894;42.768;23.404;2022-12-07T01:13:51;83.77;;;42.07;;
11675;SDS011;5894;42.768;23.404;2022-12-07T01:16:19;84.33;;;41.63;;
11675;SDS011;5894;42.768;23.404;2022-12-07T01:18:49;62.97;;;30.77;;
11675;SDS011;5894;42.768;23.404;2022-12-07T01:21:19;48.17;;;25.80;;
11675;SDS011;5894;42.768;23.404;2022-12-07T01:23:47;43.53;;;23.20;;
11675;SDS011;5894;42.768;23.404;2022-12-07T01:26:15;37.93;;;20.37;;
11675;SDS011;5894;42.768;23.404;2022-12-07T01:28:43;34.30;;;19.83;;
11675;SDS011;5894;42.768;23.404;2022-12-07T01:31:11;35.40;;;19.93;;
11675;SDS011;5894;42.768;23.404;2022-12-07T01:33:41;39.00;;;20.87;;
11675;SDS011;5894;42.768;23.404;2022-12-07T01:36:12;43.30;;;23.40;;
11675;SDS011;5894;42.768;23.404;2022-12-07T01:38:40;45.00;;;22.97;;
11675;SDS011;5894;42.768;23.404;2022-12-07T01:41:07;47.40;;;24.20;;
11675;SDS011;5894;42.768;23.404;2022-12-07T01:43:34;48.40;;;26.17;;
11675;SDS011;5894;42.768;23.404;2022-12-07T01:46:02;50.30;;;26.97;;
11675;SDS011;5894;42.768;23.404;2022-12-07T01:48:31;53.33;;;27.37;;
11675;SDS011;5894;42.768;23.404;2022-12-07T01:51:01;47.43;;;25.90;;
11675;SDS011;5894;42.768;23.404;2022-12-07T01:53:33;41.03;;;22.27;;
11675;SDS011;5894;42.768;23.404;2022-12-07T01:56:02;40.67;;;21.23;;
11675;SDS011;5894;42.768;23.404;2022-12-07T01:58:29;44.57;;;22.10;;
11675;SDS011;5894;42.768;23.404;2022-12-07T02:00:56;45.40;;;22.70;;
11675;SDS011;5894;42.768;23.404;2022-12-07T02:03:24;49.17;;;25.20;;
11675;SDS011;5894;42.768;23.404;2022-12-07T02:05:56;48.07;;;23.70;;
11675;SDS011;5894;42.768;23.404;2022-12-07T02:08:24;49.40;;;22.50;;
11675;SDS011;5894;42.768;23.404;2022-12-07T02:10:53;41.17;;;21.00;;
11675;SDS011;5894;42.768;23.404;2022-12-07T02:13:24;41.03;;;21.33;;
11675;SDS011;5894;42.768;23.404;2022-12-07T02:15:59;44.57;;;20.90;;
11675;SDS011;5894;42.768;23.404;2022-12-07T02:18:38;38.87;;;20.30;;
11675;SDS011;5894;42.768;23.404;2022-12-07T02:21:16;40.80;;;20.17;;
11675;SDS011;5894;42.768;23.404;2022-12-07T02:24:09;46.77;;;22.10;;
11675;SDS011;5894;42.768;23.404;2022-12-07T02:30:03;48.10;;;23.57;;
11675;SDS011;5894;42.768;23.404;2022-12-07T02:32:36;51.33;;;23.30;;
11675;SDS011;5894;42.768;23.404;2022-12-07T02:35:10;43.27;;;20.40;;
11675;SDS011;5894;42.768;23.404;2022-12-07T02:37:41;38.40;;;20.70;;
11675;SDS011;5894;42.768;23.404;2022-12-07T02:40:14;40.50;;;20.63;;
11675;SDS011;5894;42.768;23.404;2022-12-07T02:42:46;38.00;;;19.33;;
11675;SDS011;5894;42.768;23.404;2022-12-07T02:45:20;34.53;;;18.70;;
11675;SDS011;5894;42.768;23.404;2022-12-07T02:47:50;30.03;;;18.27;;
11675;SDS011;5894;42.768;23.404;2022-12-07T02:50:19;31.40;;;17.57;;
11675;SDS011;5894;42.768;23.404;2022-12-07T02:52:47;32.43;;;18.80;;
11675;SDS011;5894;42.768;23.404;2022-12-07T02:55:14;30.47;;;18.50;;
11675;SDS011;5894;42.768;23.404;2022-12-07T02:57:50;34.57;;;18.53;;
11675;SDS011;5894;42.768;23.404;2022-12-07T03:00:30;32.73;;;19.83;;
11675;SDS011;5894;42.768;23.404;2022-12-07T03:03:03;33.20;;;20.47;;
11675;SDS011;5894;42.768;23.404;2022-12-07T03:05:42;37.13;;;21.57;;
11675;SDS011;5894;42.768;23.404;2022-12-07T03:08:21;33.80;;;20.27;;
11675;SDS011;5894;42.768;23.404;2022-12-07T03:10:57;33.17;;;20.23;;
11675;SDS011;5894;42.768;23.404;2022-12-07T03:13:28;29.47;;;18.63;;
11675;SDS011;5894;42.768;23.404;2022-12-07T03:16:02;57.07;;;26.60;;
11675;SDS011;5894;42.768;23.404;2022-12-07T03:18:35;80.67;;;37.83;;
11675;SDS011;5894;42.768;23.404;2022-12-07T03:21:06;69.60;;;34.53;;
11675;SDS011;5894;42.768;23.404;2022-12-07T03:23:38;59.63;;;31.23;;
11675;SDS011;5894;42.768;23.404;2022-12-07T03:26:08;70.30;;;36.80;;
11675;SDS011;5894;42.768;23.404;2022-12-07T03:28:40;60.00;;;35.53;;
11675;SDS011;5894;42.768;23.404;2022-12-07T03:31:12;69.50;;;36.53;;
11675;SDS011;5894;42.768;23.404;2022-12-07T03:33:44;46.23;;;27.43;;
11675;SDS011;5894;42.768;23.404;2022-12-07T03:36:16;32.27;;;19.43;;
11675;SDS011;5894;42.768;23.404;2022-12-07T03:38:48;33.03;;;18.33;;
11675;SDS011;5894;42.768;23.404;2022-12-07T03:41:20;25.73;;;17.43;;
11675;SDS011;5894;42.768;23.404;2022-12-07T03:43:50;29.03;;;16.83;;
11675;SDS011;5894;42.768;23.404;2022-12-07T03:46:20;24.13;;;15.37;;
11675;SDS011;5894;42.768;23.404;2022-12-07T03:48:55;26.23;;;15.87;;
11675;SDS011;5894;42.768;23.404;2022-12-07T03:51:28;32.83;;;18.37;;
11675;SDS011;5894;42.768;23.404;2022-12-07T03:54:05;45.83;;;22.57;;
11675;SDS011;5894;42.768;23.404;2022-12-07T03:56:37;41.23;;;22.57;;
11675;SDS011;5894;42.768;23.404;2022-12-07T03:59:05;38.23;;;19.73;;
11675;SDS011;5894;42.768;23.404;2022-12-07T04:01:34;28.87;;;16.27;;
11675;SDS011;5894;42.768;23.404;2022-12-07T04:04:01;38.23;;;20.50;;
11675;SDS011;5894;42.768;23.404;2022-12-07T04:06:27;41.30;;;20.97;;
11675;SDS011;5894;42.768;23.404;2022-12-07T04:08:54;47.50;;;22.97;;
11675;SDS011;5894;42.768;23.404;2022-12-07T04:11:21;48.00;;;24.13;;
11675;SDS011;5894;42.768;23.404;2022-12-07T04:13:48;42.30;;;22.13;;
11675;SDS011;5894;42.768;23.404;2022-12-07T04:16:33;40.37;;;22.60;;
11675;SDS011;5894;42.768;23.404;2022-12-07T04:19:00;45.07;;;25.93;;
11675;SDS011;5894;42.768;23.404;2022-12-07T04:21:27;53.43;;;30.23;;
11675;SDS011;5894;42.768;23.404;2022-12-07T04:23:54;45.07;;;26.83;;
11675;SDS011;5894;42.768;23.404;2022-12-07T04:26:20;43.70;;;27.03;;
11675;SDS011;5894;42.768;23.404;2022-12-07T04:28:47;28.73;;;17.80;;
11675;SDS011;5894;42.768;23.404;2022-12-07T04:31:14;34.67;;;22.37;;
11675;SDS011;5894;42.768;23.404;2022-12-07T04:33:42;33.43;;;21.50;;
11675;SDS011;5894;42.768;23.404;2022-12-07T04:36:09;31.47;;;21.83;;
11675;SDS011;5894;42.768;23.404;2022-12-07T04:38:36;33.97;;;21.77;;
11675;SDS011;5894;42.768;23.404;2022-12-07T04:41:04;34.17;;;23.33;;
11675;SDS011;5894;42.768;23.404;2022-12-07T04:43:32;34.07;;;22.50;;
11675;SDS011;5894;42.768;23.404;2022-12-07T04:45:59;27.10;;;18.83;;
11675;SDS011;5894;42.768;23.404;2022-12-07T04:48:25;30.07;;;18.70;;
11675;SDS011;5894;42.768;23.404;2022-12-07T04:50:54;26.07;;;17.20;;
11675;SDS011;5894;42.768;23.404;2022-12-07T04:53:21;28.20;;;16.47;;
11675;SDS011;5894;42.768;23.404;2022-12-07T04:55:48;21.27;;;13.33;;
11675;SDS011;5894;42.768;23.404;2022-12-07T04:58:15;25.73;;;14.33;;
11675;SDS011;5894;42.768;23.404;2022-12-07T05:00:42;22.70;;;13.77;;
11675;SDS011;5894;42.768;23.404;2022-12-07T05:03:08;19.27;;;12.87;;
11675;SDS011;5894;42.768;23.404;2022-12-07T05:05:35;26.87;;;17.07;;
11675;SDS011;5894;42.768;23.404;2022-12-07T05:08:03;26.53;;;17.13;;
11675;SDS011;5894;42.768;23.404;2022-12-07T05:10:30;26.60;;;17.43;;
11675;SDS011;5894;42.768;23.404;2022-12-07T05:12:57;30.37;;;18.00;;
11675;SDS011;5894;42.768;23.404;2022-12-07T05:15:24;22.70;;;15.10;;
11675;SDS011;5894;42.768;23.404;2022-12-07T05:17:50;23.57;;;13.93;;
11675;SDS011;5894;42.768;23.404;2022-12-07T05:20:17;21.97;;;14.93;;
11675;SDS011;5894;42.768;23.404;2022-12-07T05:22:44;27.53;;;16.07;;
11675;SDS011;5894;42.768;23.404;2022-12-07T05:25:12;35.07;;;17.70;;
11675;SDS011;5894;42.768;23.404;2022-12-07T05:27:39;61.23;;;35.43;;
11675;SDS011;5894;42.768;23.404;2022-12-07T05:30:06;51.80;;;30.57;;
11675;SDS011;5894;42.768;23.404;2022-12-07T05:32:34;54.63;;;30.90;;
11675;SDS011;5894;42.768;23.404;2022-12-07T05:35:01;58.43;;;32.60;;
11675;SDS011;5894;42.768;23.404;2022-12-07T05:37:27;58.70;;;29.73;;
11675;SDS011;5894;42.768;23.404;2022-12-07T05:39:54;45.50;;;23.77;;
11675;SDS011;5894;42.768;23.404;2022-12-07T05:42:22;45.83;;;25.17;;
11675;SDS011;5894;42.768;23.404;2022-12-07T05:44:49;41.37;;;23.23;;
11675;SDS011;5894;42.768;23.404;2022-12-07T05:47:16;40.77;;;22.00;;
11675;SDS011;5894;42.768;23.404;2022-12-07T05:49:43;35.67;;;20.77;;
11675;SDS011;5894;42.768;23.404;2022-12-07T05:52:09;39.97;;;21.70;;
11675;SDS011;5894;42.768;23.404;2022-12-07T05:54:36;26.63;;;17.53;;
11675;SDS011;5894;42.768;23.404;2022-12-07T05:57:03;81.47;;;44.57;;
11675;SDS011;5894;42.768;23.404;2022-12-07T05:59:31;41.03;;;21.37;;
11675;SDS011;5894;42.768;23.404;2022-12-07T06:01:57;57.63;;;26.23;;
11675;SDS011;5894;42.768;23.404;2022-12-07T06:04:26;39.57;;;18.90;;
11675;SDS011;5894;42.768;23.404;2022-12-07T06:06:54;29.20;;;17.10;;
11675;SDS011;5894;42.768;23.404;2022-12-07T06:09:24;25.43;;;13.73;;
11675;SDS011;5894;42.768;23.404;2022-12-07T06:11:52;39.77;;;25.20;;
11675;SDS011;5894;42.768;23.404;2022-12-07T06:14:38;25.47;;;12.97;;
11675;SDS011;5894;42.768;23.404;2022-12-07T06:17:05;35.90;;;15.83;;
11675;SDS011;5894;42.768;23.404;2022-12-07T06:19:33;34.43;;;18.90;;
11675;SDS011;5894;42.768;23.404;2022-12-07T06:22:00;31.17;;;16.47;;
11675;SDS011;5894;42.768;23.404;2022-12-07T06:24:28;39.67;;;21.70;;
11675;SDS011;5894;42.768;23.404;2022-12-07T06:26:54;31.83;;;18.77;;
11675;SDS011;5894;42.768;23.404;2022-12-07T06:29:21;33.87;;;19.97;;
11675;SDS011;5894;42.768;23.404;2022-12-07T06:31:49;28.93;;;17.93;;
11675;SDS011;5894;42.768;23.404;2022-12-07T06:34:17;31.67;;;19.50;;
11675;SDS011;5894;42.768;23.404;2022-12-07T06:36:45;43.20;;;22.67;;
11675;SDS011;5894;42.768;23.404;2022-12-07T06:39:16;67.53;;;27.30;;
11675;SDS011;5894;42.768;23.404;2022-12-07T06:41:44;72.10;;;29.93;;
11675;SDS011;5894;42.768;23.404;2022-12-07T06:44:10;62.20;;;29.70;;
11675;SDS011;5894;42.768;23.404;2022-12-07T06:46:37;69.27;;;31.17;;
11675;SDS011;5894;42.768;23.404;2022-12-07T06:49:06;68.77;;;29.87;;
11675;SDS011;5894;42.768;23.404;2022-12-07T06:51:33;63.90;;;28.40;;
11675;SDS011;5894;42.768;23.404;2022-12-07T06:54:01;50.23;;;25.07;;
11675;SDS011;5894;42.768;23.404;2022-12-07T06:56:28;41.40;;;22.60;;
11675;SDS011;5894;42.768;23.404;2022-12-07T06:58:55;38.87;;;21.10;;
11675;SDS011;5894;42.768;23.404;2022-12-07T07:01:22;36.03;;;18.83;;
11675;SDS011;5894;42.768;23.404;2022-12-07T07:03:49;32.77;;;19.00;;
11675;SDS011;5894;42.768;23.404;2022-12-07T07:06:17;35.43;;;19.20;;
11675;SDS011;5894;42.768;23.404;2022-12-07T07:08:44;33.63;;;18.47;;
11675;SDS011;5894;42.768;23.404;2022-12-07T07:11:11;27.63;;;15.27;;
11675;SDS011;5894;42.768;23.404;2022-12-07T07:13:38;26.90;;;15.07;;
11675;SDS011;5894;42.768;23.404;2022-12-07T07:16:05;21.60;;;14.17;;
11675;SDS011;5894;42.768;23.404;2022-12-07T07:18:33;23.40;;;13.97;;
11675;SDS011;5894;42.768;23.404;2022-12-07T07:21:00;24.57;;;15.23;;
11675;SDS011;5894;42.768;23.404;2022-12-07T07:23:28;36.77;;;19.53;;
11675;SDS011;5894;42.768;23.404;2022-12-07T07:25:55;37.53;;;20.77;;
11675;SDS011;5894;42.768;23.404;2022-12-07T07:28:22;33.90;;;19.57;;
11675;SDS011;5894;42.768;23.404;2022-12-07T07:30:49;36.13;;;20.70;;
11675;SDS011;5894;42.768;23.404;2022-12-07T07:33:16;42.63;;;24.57;;
11675;SDS011;5894;42.768;23.404;2022-12-07T07:35:43;44.40;;;26.97;;
11675;SDS011;5894;42.768;23.404;2022-12-07T07:38:09;50.03;;;27.80;;
11675;SDS011;5894;42.768;23.404;2022-12-07T07:40:38;49.37;;;30.07;;
11675;SDS011;5894;42.768;23.404;2022-12-07T07:43:04;51.80;;;30.37;;
11675;SDS011;5894;42.768;23.404;2022-12-07T07:45:31;55.77;;;30.57;;
11675;SDS011;5894;42.768;23.404;2022-12-07T07:47:58;50.87;;;30.13;;
11675;SDS011;5894;42.768;23.404;2022-12-07T07:50:25;49.53;;;29.50;;
11675;SDS011;5894;42.768;23.404;2022-12-07T07:52:51;43.47;;;29.03;;
11675;SDS011;5894;42.768;23.404;2022-12-07T07:55:18;53.13;;;30.30;;
11675;SDS011;5894;42.768;23.404;2022-12-07T07:57:46;69.00;;;37.60;;
11675;SDS011;5894;42.768;23.404;2022-12-07T08:00:14;38.07;;;24.27;;
11675;SDS011;5894;42.768;23.404;2022-12-07T08:02:42;39.27;;;24.00;;
11675;SDS011;5894;42.768;23.404;2022-12-07T08:05:09;47.17;;;29.00;;
11675;SDS011;5894;42.768;23.404;2022-12-07T08:07:37;39.13;;;26.00;;
11675;SDS011;5894;42.768;23.404;2022-12-07T08:10:04;30.67;;;18.87;;
11675;SDS011;5894;42.768;23.404;2022-12-07T08:12:35;28.20;;;18.27;;
11675;SDS011;5894;42.768;23.404;2022-12-07T08:15:04;28.40;;;16.47;;
11675;SDS011;5894;42.768;23.404;2022-12-07T08:17:31;28.80;;;16.97;;
11675;SDS011;5894;42.768;23.404;2022-12-07T08:20:01;29.70;;;16.97;;
11675;SDS011;5894;42.768;23.404;2022-12-07T08:22:28;29.20;;;16.40;;
11675;SDS011;5894;42.768;23.404;2022-12-07T08:24:55;27.40;;;16.67;;
11675;SDS011;5894;42.768;23.404;2022-12-07T08:27:21;28.67;;;16.33;;
11675;SDS011;5894;42.768;23.404;2022-12-07T08:29:52;29.80;;;18.43;;
11675;SDS011;5894;42.768;23.404;2022-12-07T08:32:20;32.57;;;19.37;;
11675;SDS011;5894;42.768;23.404;2022-12-07T08:34:46;43.50;;;25.50;;
11675;SDS011;5894;42.768;23.404;2022-12-07T08:37:13;39.33;;;22.43;;
11675;SDS011;5894;42.768;23.404;2022-12-07T08:39:40;45.37;;;23.67;;
11675;SDS011;5894;42.768;23.404;2022-12-07T08:42:07;38.10;;;22.30;;
11675;SDS011;5894;42.768;23.404;2022-12-07T08:44:34;34.53;;;20.87;;
11675;SDS011;5894;42.768;23.404;2022-12-07T08:47:01;35.80;;;20.73;;
11675;SDS011;5894;42.768;23.404;2022-12-07T08:49:33;36.70;;;20.87;;
11675;SDS011;5894;42.768;23.404;2022-12-07T08:52:04;35.70;;;20.20;;
11675;SDS011;5894;42.768;23.404;2022-12-07T08:54:32;33.70;;;19.90;;
11675;SDS011;5894;42.768;23.404;2022-12-07T08:57:02;36.30;;;21.50;;
11675;SDS011;5894;42.768;23.404;2022-12-07T08:59:29;34.67;;;20.17;;
11675;SDS011;5894;42.768;23.404;2022-12-07T09:01:57;29.73;;;18.10;;
11675;SDS011;5894;42.768;23.404;2022-12-07T09:04:24;30.13;;;18.83;;
11675;SDS011;5894;42.768;23.404;2022-12-07T09:06:52;32.33;;;19.07;;
11675;SDS011;5894;42.768;23.404;2022-12-07T09:09:20;31.53;;;18.30;;
11675;SDS011;5894;42.768;23.404;2022-12-07T09:11:47;35.20;;;18.67;;
11675;SDS011;5894;42.768;23.404;2022-12-07T09:14:14;28.20;;;16.27;;
11675;SDS011;5894;42.768;23.404;2022-12-07T09:16:40;29.23;;;16.53;;
11675;SDS011;5894;42.768;23.404;2022-12-07T09:19:07;28.97;;;17.40;;
11675;SDS011;5894;42.768;23.404;2022-12-07T09:21:34;29.63;;;16.87;;
11675;SDS011;5894;42.768;23.404;2022-12-07T09:24:03;33.67;;;19.07;;
11675;SDS011;5894;42.768;23.404;2022-12-07T09:26:30;30.37;;;17.90;;
11675;SDS011;5894;42.768;23.404;2022-12-07T09:28:57;29.20;;;16.57;;
11675;SDS011;5894;42.768;23.404;2022-12-07T09:31:23;30.07;;;18.10;;
11675;SDS011;5894;42.768;23.404;2022-12-07T09:33:54;36.17;;;19.37;;
11675;SDS011;5894;42.768;23.404;2022-12-07T09:36:22;32.50;;;19.57;;
11675;SDS011;5894;42.768;23.404;2022-12-07T09:38:49;35.07;;;20.67;;
11675;SDS011;5894;42.768;23.404;2022-12-07T09:41:18;48.73;;;25.53;;
11675;SDS011;5894;42.768;23.404;2022-12-07T09:43:45;62.23;;;29.60;;
11675;SDS011;5894;42.768;23.404;2022-12-07T09:46:14;40.30;;;22.37;;
11675;SDS011;5894;42.768;23.404;2022-12-07T09:48:45;33.70;;;19.03;;
11675;SDS011;5894;42.768;23.404;2022-12-07T09:51:14;29.83;;;17.67;;
11675;SDS011;5894;42.768;23.404;2022-12-07T09:53:43;33.00;;;18.40;;
11675;SDS011;5894;42.768;23.404;2022-12-07T09:56:11;32.60;;;18.63;;
11675;SDS011;5894;42.768;23.404;2022-12-07T09:58:41;28.53;;;17.13;;
11675;SDS011;5894;42.768;23.404;2022-12-07T10:01:10;27.23;;;16.97;;
11675;SDS011;5894;42.768;23.404;2022-12-07T10:03:40;25.90;;;15.77;;
11675;SDS011;5894;42.768;23.404;2022-12-07T10:06:11;25.20;;;16.37;;
11675;SDS011;5894;42.768;23.404;2022-12-07T10:08:39;29.33;;;16.23;;
11675;SDS011;5894;42.768;23.404;2022-12-07T10:11:06;29.00;;;16.50;;
11675;SDS011;5894;42.768;23.404;2022-12-07T10:13:36;28.77;;;16.97;;
11675;SDS011;5894;42.768;23.404;2022-12-07T10:16:08;25.13;;;15.53;;
11675;SDS011;5894;42.768;23.404;2022-12-07T10:24:42;28.80;;;15.30;;
11675;SDS011;5894;42.768;23.404;2022-12-07T10:27:17;27.77;;;17.03;;
11675;SDS011;5894;42.768;23.404;2022-12-07T10:29:49;25.97;;;15.57;;
11675;SDS011;5894;42.768;23.404;2022-12-07T10:32:27;27.60;;;15.83;;
11675;SDS011;5894;42.768;23.404;2022-12-07T10:37:47;25.43;;;15.00;;
11675;SDS011;5894;42.768;23.404;2022-12-07T10:40:28;32.83;;;17.90;;
11675;SDS011;5894;42.768;23.404;2022-12-07T10:43:02;29.80;;;16.33;;
11675;SDS011;5894;42.768;23.404;2022-12-07T10:45:30;26.17;;;16.27;;
11675;SDS011;5894;42.768;23.404;2022-12-07T10:48:02;32.00;;;18.90;;
11675;SDS011;5894;42.768;23.404;2022-12-07T10:50:42;28.57;;;16.67;;
11675;SDS011;5894;42.768;23.404;2022-12-07T10:53:28;35.93;;;20.23;;
11675;SDS011;5894;42.768;23.404;2022-12-07T10:56:14;28.97;;;16.93;;
11675;SDS011;5894;42.768;23.404;2022-12-07T10:58:59;40.63;;;21.73;;
11675;SDS011;5894;42.768;23.404;2022-12-07T11:01:40;26.50;;;16.70;;
11675;SDS011;5894;42.768;23.404;2022-12-07T11:04:17;59.33;;;28.87;;
11675;SDS011;5894;42.768;23.404;2022-12-07T11:06:52;36.00;;;20.00;;
11675;SDS011;5894;42.768;23.404;2022-12-07T11:12:20;25.63;;;15.53;;
11675;SDS011;5894;42.768;23.404;2022-12-07T11:15:01;29.13;;;16.57;;
11675;SDS011;5894;42.768;23.404;2022-12-07T11:17:36;26.13;;;15.70;;
11675;SDS011;5894;42.768;23.404;2022-12-07T11:20:15;24.90;;;15.10;;
11675;SDS011;5894;42.768;23.404;2022-12-07T11:22:56;26.83;;;16.13;;
11675;SDS011;5894;42.768;23.404;2022-12-07T11:25:31;27.90;;;15.80;;
11675;SDS011;5894;42.768;23.404;2022-12-07T11:28:09;31.03;;;17.23;;
11675;SDS011;5894;42.768;23.404;2022-12-07T11:30:46;27.93;;;16.57;;
11675;SDS011;5894;42.768;23.404;2022-12-07T11:33:26;26.23;;;16.90;;
11675;SDS011;5894;42.768;23.404;2022-12-07T11:36:04;29.30;;;16.90;;
11675;SDS011;5894;42.768;23.404;2022-12-07T11:38:43;29.53;;;17.07;;
11675;SDS011;5894;42.768;23.404;2022-12-07T11:41:15;32.10;;;16.87;;
11675;SDS011;5894;42.768;23.404;2022-12-07T11:43:52;30.30;;;17.17;;
11675;SDS011;5894;42.768;23.404;2022-12-07T11:46:22;26.07;;;15.90;;
11675;SDS011;5894;42.768;23.404;2022-12-07T11:48:54;25.77;;;15.83;;
11675;SDS011;5894;42.768;23.404;2022-12-07T11:51:26;30.10;;;16.30;;
11675;SDS011;5894;42.768;23.404;2022-12-07T11:53:57;26.93;;;15.83;;
11675;SDS011;5894;42.768;23.404;2022-12-07T11:56:28;29.10;;;17.00;;
11675;SDS011;5894;42.768;23.404;2022-12-07T11:59:02;27.10;;;16.23;;
11675;SDS011;5894;42.768;23.404;2022-12-07T12:01:41;21.33;;;13.93;;
11675;SDS011;5894;42.768;23.404;2022-12-07T12:04:19;21.50;;;13.30;;
11675;SDS011;5894;42.768;23.404;2022-12-07T12:06:54;22.03;;;13.27;;
11675;SDS011;5894;42.768;23.404;2022-12-07T12:09:21;25.73;;;14.63;;
11675;SDS011;5894;42.768;23.404;2022-12-07T12:12:00;25.87;;;15.33;;
11675;SDS011;5894;42.768;23.404;2022-12-07T12:14:46;23.33;;;14.53;;
11675;SDS011;5894;42.768;23.404;2022-12-07T12:17:27;26.40;;;15.00;;
11675;SDS011;5894;42.768;23.404;2022-12-07T12:20:06;22.83;;;14.30;;
11675;SDS011;5894;42.768;23.404;2022-12-07T12:22:48;27.77;;;15.27;;
11675;SDS011;5894;42.768;23.404;2022-12-07T12:25:20;19.80;;;13.67;;
11675;SDS011;5894;42.768;23.404;2022-12-07T12:27:50;22.13;;;13.40;;
11675;SDS011;5894;42.768;23.404;2022-12-07T12:30:25;22.67;;;12.50;;
11675;SDS011;5894;42.768;23.404;2022-12-07T12:33:01;21.73;;;12.93;;
11675;SDS011;5894;42.768;23.404;2022-12-07T12:35:30;21.23;;;13.23;;
11675;SDS011;5894;42.768;23.404;2022-12-07T12:40:58;22.53;;;12.00;;
11675;SDS011;5894;42.768;23.404;2022-12-07T12:46:36;21.77;;;13.10;;
11675;SDS011;5894;42.768;23.404;2022-12-07T12:49:33;23.00;;;12.83;;
11675;SDS011;5894;42.768;23.404;2022-12-07T12:55:23;21.50;;;12.70;;
11675;SDS011;5894;42.768;23.404;2022-12-07T12:58:25;19.87;;;12.77;;
11675;SDS011;5894;42.768;23.404;2022-12-07T13:04:00;17.52;;;11.75;;
11675;SDS011;5894;42.768;23.404;2022-12-07T13:06:33;20.37;;;12.03;;
11675;SDS011;5894;42.768;23.404;2022-12-07T13:09:03;24.00;;;13.60;;
11675;SDS011;5894;42.768;23.404;2022-12-07T13:11:32;23.47;;;13.33;;
11675;SDS011;5894;42.768;23.404;2022-12-07T13:20:39;28.40;;;18.45;;
11675;SDS011;5894;42.768;23.404;2022-12-07T13:23:31;22.88;;;15.07;;
11675;SDS011;5894;42.768;23.404;2022-12-07T13:28:47;18.63;;;11.77;;
11675;SDS011;5894;42.768;23.404;2022-12-07T13:31:18;24.33;;;11.88;;
11675;SDS011;5894;42.768;23.404;2022-12-07T13:33:50;17.92;;;12.13;;
11675;SDS011;5894;42.768;23.404;2022-12-07T13:36:18;16.67;;;11.35;;
11675;SDS011;5894;42.768;23.404;2022-12-07T13:38:48;21.10;;;11.35;;
11675;SDS011;5894;42.768;23.404;2022-12-07T13:41:19;17.60;;;11.65;;
11675;SDS011;5894;42.768;23.404;2022-12-07T13:43:49;19.65;;;11.88;;
11675;SDS011;5894;42.768;23.404;2022-12-07T13:46:19;26.13;;;12.45;;
11675;SDS011;5894;42.768;23.404;2022-12-07T13:48:51;16.15;;;11.75;;
11675;SDS011;5894;42.768;23.404;2022-12-07T13:51:21;19.03;;;11.60;;
11675;SDS011;5894;42.768;23.404;2022-12-07T13:53:50;18.83;;;12.03;;
11675;SDS011;5894;42.768;23.404;2022-12-07T13:56:20;19.70;;;12.10;;
11675;SDS011;5894;42.768;23.404;2022-12-07T13:58:50;19.90;;;11.90;;
11675;SDS011;5894;42.768;23.404;2022-12-07T14:01:17;21.83;;;11.43;;
11675;SDS011;5894;42.768;23.404;2022-12-07T14:03:44;18.73;;;11.48;;
11675;SDS011;5894;42.768;23.404;2022-12-07T14:06:19;20.20;;;14.07;;
11675;SDS011;5894;42.768;23.404;2022-12-07T14:09:05;21.53;;;12.67;;
11675;SDS011;5894;42.768;23.404;2022-12-07T14:11:33;20.30;;;12.50;;
11675;SDS011;5894;42.768;23.404;2022-12-07T14:14:01;19.63;;;12.00;;
11675;SDS011;5894;42.768;23.404;2022-12-07T14:16:30;21.70;;;12.93;;
11675;SDS011;5894;42.768;23.404;2022-12-07T14:18:59;17.80;;;11.90;;
11675;SDS011;5894;42.768;23.404;2022-12-07T14:21:28;17.97;;;11.73;;
11675;SDS011;5894;42.768;23.404;2022-12-07T14:24:03;20.85;;;11.73;;
11675;SDS011;5894;42.768;23.404;2022-12-07T14:26:35;17.80;;;11.85;;
11675;SDS011;5894;42.768;23.404;2022-12-07T14:29:21;21.50;;;12.63;;
11675;SDS011;5894;42.768;23.404;2022-12-07T14:31:56;16.85;;;10.77;;
11675;SDS011;5894;42.768;23.404;2022-12-07T14:34:24;19.30;;;11.77;;
11675;SDS011;5894;42.768;23.404;2022-12-07T14:36:51;26.67;;;13.40;;
11675;SDS011;5894;42.768;23.404;2022-12-07T14:39:19;24.00;;;13.55;;
11675;SDS011;5894;42.768;23.404;2022-12-07T14:41:46;26.10;;;15.80;;
11675;SDS011;5894;42.768;23.404;2022-12-07T14:44:19;34.33;;;19.47;;
11675;SDS011;5894;42.768;23.404;2022-12-07T14:46:48;31.13;;;20.15;;
11675;SDS011;5894;42.768;23.404;2022-12-07T14:49:16;38.40;;;21.07;;
11675;SDS011;5894;42.768;23.404;2022-12-07T14:51:43;36.67;;;22.13;;
11675;SDS011;5894;42.768;23.404;2022-12-07T14:54:14;34.10;;;22.93;;
11675;SDS011;5894;42.768;23.404;2022-12-07T14:56:43;37.97;;;23.63;;
11675;SDS011;5894;42.768;23.404;2022-12-07T14:59:11;33.80;;;22.07;;
11675;SDS011;5894;42.768;23.404;2022-12-07T15:01:39;37.47;;;21.30;;
11675;SDS011;5894;42.768;23.404;2022-12-07T15:04:06;34.70;;;21.10;;
11675;SDS011;5894;42.768;23.404;2022-12-07T15:06:33;38.87;;;20.97;;
11675;SDS011;5894;42.768;23.404;2022-12-07T15:09:00;42.23;;;21.90;;
11675;SDS011;5894;42.768;23.404;2022-12-07T15:11:27;39.53;;;21.87;;
11675;SDS011;5894;42.768;23.404;2022-12-07T15:13:54;50.27;;;26.17;;